Time;durP1;ratioP1;P1;durP2;ratioP2;P2;SDS_P1;SDS_P2;PMS_P1;PMS_P2;Temp;Humidity;BMP_temperature;BMP_pressure;BME280_temperature;BME280_humidity;BME280_pressure;Samples;Min_cycle;Max_cycle;Signal;HPM_P1;HPM_P2
2023/10/10 00:01:56;;;;;;;;;;;;;;;18.93;61.08;100185.63;10324550;28;1914;-73
2023/10/10 00:06:51;;;;;;;;;;;;;;;18.90;61.14;100181.34;10325513;28;878;-73
2023/10/10 00:11:47;;;;;;;;;;;;;;;18.90;61.04;100177.84;10325086;28;803;-74
2023/10/10 00:16:43;;;;;;;;;;;;;;;18.89;61.20;100182.25;10324976;28;901;-74
2023/10/10 00:21:40;;;;;;;;;;;;;;;18.89;61.10;100182.25;10325489;28;909;-74
2023/10/10 00:26:36;;;;;;;;;;;;;;;18.89;61.11;100186.66;10324708;28;1906;-73
2023/10/10 00:31:33;;;;;;;;;;;;;;;18.88;61.09;100192.88;10325296;28;888;-74
2023/10/10 00:36:35;;;;;;;;;;;;;;;18.86;61.13;100184.16;10325577;28;854;-73
2023/10/10 00:41:31;;;;;;;;;;;;;;;18.86;61.18;100176.22;10325034;28;932;-75
2023/10/10 00:46:28;;;;;;;;;;;;;;;18.86;61.17;100170.94;10323599;28;1886;-74
2023/10/10 00:51:24;;;;;;;;;;;;;;;18.85;61.25;100172.72;10324878;28;1177;-74
2023/10/10 00:56:22;;;;;;;;;;;;;;;18.83;61.20;100172.78;10324361;28;857;-74
2023/10/10 01:01:19;;;;;;;;;;;;;;;18.83;61.30;100164.84;10323440;28;911;-74
2023/10/10 01:06:25;;;;;;;;;;;;;;;18.84;61.18;100168.38;10323874;28;1906;-74
2023/10/10 01:11:22;;;;;;;;;;;;;;;18.83;61.33;100166.66;10326067;28;866;-74
2023/10/10 01:16:18;;;;;;;;;;;;;;;18.82;61.42;100170.22;10330968;28;933;-75
2023/10/10 01:21:19;;;;;;;;;;;;;;;18.82;61.31;100159.66;10331489;28;901;-74
2023/10/10 01:26:16;;;;;;;;;;;;;;;18.81;61.23;100158.81;10331401;28;1897;-74
2023/10/10 01:31:17;;;;;;;;;;;;;;;18.81;61.44;100158.81;10330449;28;899;-74
2023/10/10 01:36:19;;;;;;;;;;;;;;;18.81;61.26;100150.00;10329823;28;1141;-74
2023/10/10 01:41:15;;;;;;;;;;;;;;;18.81;61.39;100152.63;10330096;28;942;-74
2023/10/10 01:46:34;;;;;;;;;;;;;;;18.80;61.33;100151.78;10330215;28;1957;-74
2023/10/10 01:51:33;;;;;;;;;;;;;;;18.79;61.31;100152.72;10329433;28;1013;-73
2023/10/10 01:56:29;;;;;;;;;;;;;;;18.79;61.32;100146.59;10330082;28;807;-73
2023/10/10 02:01:27;;;;;;;;;;;;;;;18.78;61.23;100144.84;10329960;28;932;-74
2023/10/10 02:06:27;;;;;;;;;;;;;;;18.79;61.40;100149.22;10328981;28;1901;-74
2023/10/10 02:11:23;;;;;;;;;;;;;;;18.77;61.42;100141.34;10329957;28;834;-74
2023/10/10 02:16:23;;;;;;;;;;;;;;;18.78;61.17;100134.28;10328774;28;848;-74
2023/10/10 02:21:31;;;;;;;;;;;;;;;18.77;61.46;100144.00;10328051;28;894;-74
2023/10/10 02:26:51;;;;;;;;;;;;;;;18.76;61.24;100142.28;10328805;28;1957;-74
2023/10/10 02:31:55;;;;;;;;;;;;;;;18.76;61.36;100138.78;10327242;28;2040;-75
2023/10/10 02:37:13;;;;;;;;;;;;;;;18.76;61.25;100138.78;10327884;28;938;-74
2023/10/10 02:42:13;;;;;;;;;;;;;;;18.76;61.33;100138.78;10327845;28;1898;-75
2023/10/10 02:47:12;;;;;;;;;;;;;;;18.75;61.35;100150.25;10327623;28;1149;-74
2023/10/10 02:52:08;;;;;;;;;;;;;;;18.75;61.35;100147.63;10327794;28;873;-75
2023/10/10 03:02:19;;;;;;;;;;;;;;;18.74;61.50;100146.72;10327086;28;1906;-74
2023/10/10 03:07:20;;;;;;;;;;;;;;;18.73;61.31;100142.38;10327248;28;839;-74
2023/10/10 03:12:17;;;;;;;;;;;;;;;18.74;61.44;100137.97;10326530;28;879;-74
2023/10/10 03:17:31;;;;;;;;;;;;;;;18.73;61.46;100130.94;10326281;28;906;-73
2023/10/10 03:22:52;;;;;;;;;;;;;;;18.73;61.44;100137.09;10326366;28;1952;-73
2023/10/10 03:27:54;;;;;;;;;;;;;;;18.72;61.24;100131.88;10326145;28;1538;-74
2023/10/10 03:33:08;;;;;;;;;;;;;;;18.72;61.43;100123.94;10325639;28;818;-73
2023/10/10 03:38:26;;;;;;;;;;;;;;;18.70;61.50;100118.72;10326657;28;859;-74
2023/10/10 05:28:13;;;;;;;;;;;;;;;18.97;60.84;100077.13;10330944;28;659;-71
2023/10/10 05:33:09;;;;;;;;;;;;;;;18.98;60.84;100080.63;10330490;28;822;-70
2023/10/10 05:38:07;;;;;;;;;;;;;;;19.00;60.74;100079.66;10330874;28;826;-70
2023/10/10 05:43:03;;;;;;;;;;;;;;;19.03;60.78;100082.16;10329218;28;1894;-71
2023/10/10 05:47:59;;;;;;;;;;;;;;;19.02;60.68;100080.44;10329071;28;1434;-71
2023/10/10 05:52:55;;;;;;;;;;;;;;;19.03;60.63;100068.94;10329731;28;809;-70
2023/10/10 05:57:52;;;;;;;;;;;;;;;19.03;60.63;100062.81;10328711;28;771;-71
2023/10/10 06:02:47;;;;;;;;;;;;;;;19.02;60.66;100050.50;10329853;28;1977;-70
2023/10/10 06:07:43;;;;;;;;;;;;;;;19.01;60.66;100057.56;10329829;28;828;-70
2023/10/10 06:12:40;;;;;;;;;;;;;;;19.00;60.81;100069.06;10329027;28;751;-70
2023/10/10 06:17:35;;;;;;;;;;;;;;;18.98;60.71;100070.91;10329369;28;869;-70
2023/10/10 06:22:31;;;;;;;;;;;;;;;19.00;60.67;100070.88;10328552;28;1910;-70
2023/10/10 06:27:28;;;;;;;;;;;;;;;18.94;60.89;100082.56;10328389;28;817;-70
2023/10/10 06:32:25;;;;;;;;;;;;;;;18.93;60.94;100082.59;10328057;28;879;-70
2023/10/10 06:37:26;;;;;;;;;;;;;;;18.93;60.93;100082.59;10327918;28;1290;-77
2023/10/10 06:42:28;;;;;;;;;;;;;;;18.95;60.72;100073.69;10328396;28;1971;-75
2023/10/10 06:47:28;;;;;;;;;;;;;;;18.98;60.88;100078.00;10327268;28;1439;-74
2023/10/10 06:52:27;;;;;;;;;;;;;;;19.00;60.80;100063.78;10327993;28;862;-74
2023/10/10 06:57:35;;;;;;;;;;;;;;;19.03;60.75;100054.88;10327053;28;949;-85
2023/10/10 07:02:39;;;;;;;;;;;;;;;19.02;60.73;100056.66;10326859;28;1906;-75
2023/10/10 07:07:37;;;;;;;;;;;;;;;19.05;60.42;100053.88;10327365;28;782;-75
2023/10/10 07:12:34;;;;;;;;;;;;;;;19.09;60.59;100037.88;10326548;28;989;-78
2023/10/10 07:17:30;;;;;;;;;;;;;;;19.10;60.69;100036.94;10326369;28;931;-77
2023/10/10 07:22:26;;;;;;;;;;;;;;;19.11;60.61;100043.97;10326771;28;1898;-77
2023/10/10 07:27:29;;;;;;;;;;;;;;;19.13;60.67;100042.97;10326761;28;801;-74
2023/10/10 07:32:29;;;;;;;;;;;;;;;19.15;60.62;100040.25;10326326;28;903;-74
2023/10/10 07:37:29;;;;;;;;;;;;;;;19.15;60.62;100046.41;10326531;28;862;-74
2023/10/10 07:42:29;;;;;;;;;;;;;;;19.17;60.52;100056.91;10326298;28;1897;-74
2023/10/10 07:47:31;;;;;;;;;;;;;;;19.16;60.51;100040.19;10325396;28;1089;-74
2023/10/10 07:52:27;;;;;;;;;;;;;;;19.18;60.57;100041.00;10326334;28;861;-74
2023/10/10 07:57:28;;;;;;;;;;;;;;;19.22;60.53;100041.72;10325490;28;882;-74
2023/10/10 08:02:34;;;;;;;;;;;;;;;19.22;60.46;100052.28;10325854;28;1913;-74
2023/10/10 08:07:35;;;;;;;;;;;;;;;19.22;60.33;100045.19;10326094;28;843;-74
2023/10/10 08:12:30;;;;;;;;;;;;;;;19.24;60.54;100039.84;10325116;28;898;-74
2023/10/10 08:17:29;;;;;;;;;;;;;;;19.24;60.47;100037.22;10325021;28;772;-74
2023/10/10 08:22:28;;;;;;;;;;;;;;;19.25;60.39;100031.00;10330935;28;1898;-74
2023/10/10 08:27:24;;;;;;;;;;;;;;;19.25;60.26;100018.63;10333101;28;790;-74
2023/10/10 08:32:20;;;;;;;;;;;;;;;19.26;60.40;100016.88;10333467;28;822;-74
2023/10/10 08:37:16;;;;;;;;;;;;;;;19.29;60.41;100016.72;10332867;28;766;-74
2023/10/10 08:42:14;;;;;;;;;;;;;;;19.33;60.32;100033.28;10333013;28;1906;-74
2023/10/10 08:47:19;;;;;;;;;;;;;;;19.32;60.02;100029.78;10331976;28;1404;-74
2023/10/10 08:52:14;;;;;;;;;;;;;;;19.32;60.21;100034.22;10332048;28;1005;-74
2023/10/10 08:57:11;;;;;;;;;;;;;;;19.31;60.21;100036.03;10331876;28;883;-74
2023/10/10 09:02:07;;;;;;;;;;;;;;;19.31;60.33;100032.50;10331645;28;1959;-74
2023/10/10 09:07:08;;;;;;;;;;;;;;;19.32;60.16;100032.44;10331479;28;947;-74
2023/10/10 09:12:04;;;;;;;;;;;;;;;19.32;60.23;100028.94;10331911;28;849;-74
2023/10/10 09:17:02;;;;;;;;;;;;;;;19.32;60.12;100027.16;10330489;28;1016;-74
2023/10/10 09:22:02;;;;;;;;;;;;;;;19.32;60.21;100027.16;10330919;28;860;-74
2023/10/10 09:26:59;;;;;;;;;;;;;;;19.32;60.25;100026.31;10331297;28;1949;-75
2023/10/10 09:31:59;;;;;;;;;;;;;;;19.31;60.25;100030.75;10329299;28;1060;-74
2023/10/10 09:36:57;;;;;;;;;;;;;;;19.32;60.24;100036.88;10330383;28;890;-74
2023/10/10 09:47:16;;;;;;;;;;;;;;;19.28;60.43;100025.56;10330193;28;1893;-74
2023/10/10 09:57:26;;;;;;;;;;;;;;;19.29;60.26;100034.38;10329129;28;620;-75
2023/10/10 10:02:40;;;;;;;;;;;;;;;19.29;60.27;100029.09;10330071;28;1969;-73
2023/10/10 10:07:36;;;;;;;;;;;;;;;19.27;60.34;100037.06;10329363;28;853;-76
2023/10/10 10:12:33;;;;;;;;;;;;;;;19.28;60.34;100041.41;10329688;28;785;-73
2023/10/10 10:17:44;;;;;;;;;;;;;;;19.28;60.35;100036.13;10328817;28;890;-74
2023/10/10 10:22:42;;;;;;;;;;;;;;;19.27;60.15;100037.94;10329561;28;1901;-75
2023/10/10 10:27:43;;;;;;;;;;;;;;;19.27;60.23;100037.06;10328367;28;887;-74
2023/10/10 10:32:39;;;;;;;;;;;;;;;19.27;60.17;100031.78;10328782;28;885;-75
2023/10/10 10:37:34;;;;;;;;;;;;;;;19.28;60.34;100028.22;10328800;28;873;-75
2023/10/10 10:42:34;;;;;;;;;;;;;;;19.26;60.35;100016.88;10328179;28;1956;-73
2023/10/10 10:47:30;;;;;;;;;;;;;;;19.28;60.30;100025.56;10327334;28;1419;-74
2023/10/10 10:52:26;;;;;;;;;;;;;;;19.26;60.19;100024.81;10328092;28;893;-74
2023/10/10 10:57:27;;;;;;;;;;;;;;;19.26;60.16;100014.22;10327182;28;956;-74
2023/10/10 11:02:24;;;;;;;;;;;;;;;19.25;60.19;100004.56;10326863;28;1978;-75
2023/10/10 11:07:29;;;;;;;;;;;;;;;19.23;60.30;99994.09;10326755;28;887;-74
2023/10/10 11:12:31;;;;;;;;;;;;;;;19.24;60.19;99987.84;10326736;28;817;-74
2023/10/10 11:17:27;;;;;;;;;;;;;;;19.23;60.24;99986.16;10327231;28;973;-71
2023/10/10 11:22:38;;;;;;;;;;;;;;;19.25;60.25;99983.41;10326187;28;1905;-75
2023/10/10 11:27:43;;;;;;;;;;;;;;;19.26;60.16;99979.88;10324360;28;1105;-75
2023/10/10 11:32:46;;;;;;;;;;;;;;;19.25;60.40;99971.06;10325512;28;916;-74
2023/10/10 11:37:48;;;;;;;;;;;;;;;19.25;60.37;99965.78;10325422;28;862;-75
2023/10/10 11:42:47;;;;;;;;;;;;;;;19.26;60.29;99961.38;10325415;28;1898;-75
2023/10/10 11:47:42;;;;;;;;;;;;;;;19.27;60.29;99965.72;10324931;28;1498;-75
2023/10/10 11:52:44;;;;;;;;;;;;;;;19.29;60.26;99963.03;10324784;28;925;-74
2023/10/10 11:57:40;;;;;;;;;;;;;;;19.30;60.25;99970.00;10324271;28;841;-75
2023/10/10 12:02:42;;;;;;;;;;;;;;;19.32;60.13;99958.44;10325915;28;1918;-74
2023/10/10 12:07:40;;;;;;;;;;;;;;;19.34;60.40;99951.31;10324601;28;790;-74
2023/10/10 12:12:36;;;;;;;;;;;;;;;19.36;60.36;99936.22;10324350;28;839;-74
2023/10/10 12:17:32;;;;;;;;;;;;;;;19.38;60.13;99939.63;10324408;28;806;-75
2023/10/10 12:22:28;;;;;;;;;;;;;;;19.42;59.95;99935.09;10325251;28;1964;-75
2023/10/10 12:27:29;;;;;;;;;;;;;;;19.44;60.00;99935.84;10324346;28;786;-74
2023/10/10 12:32:26;;;;;;;;;;;;;;;19.47;59.86;99920.72;10324313;28;1151;-74
2023/10/10 12:37:23;;;;;;;;;;;;;;;19.55;59.82;99927.44;10324556;28;902;-74
2023/10/10 12:42:19;;;;;;;;;;;;;;;19.58;59.75;99914.06;10323706;28;1906;-74
2023/10/10 12:47:17;;;;;;;;;;;;;;;19.63;59.59;99912.06;10323711;28;1136;-74
2023/10/10 12:52:16;;;;;;;;;;;;;;;19.69;59.23;99906.50;10323755;28;831;-74
2023/10/10 12:57:16;;;;;;;;;;;;;;;19.75;59.44;99900.88;10324798;28;877;-74
2023/10/10 13:02:15;;;;;;;;;;;;;;;19.80;59.23;99901.53;10324472;28;901;-75
2023/10/10 13:07:11;;;;;;;;;;;;;;;19.91;58.92;99898.34;10326782;28;905;-74
2023/10/10 13:12:06;;;;;;;;;;;;;;;19.99;58.71;99898.84;10331709;28;819;-74
2023/10/10 13:22:20;;;;;;;;;;;;;;;20.16;58.17;99890.03;10331037;28;1901;-74
2023/10/10 13:27:17;;;;;;;;;;;;;;;20.24;58.12;99887.84;10330591;28;870;-74
2023/10/10 13:32:13;;;;;;;;;;;;;;;20.31;57.93;99891.91;10330398;28;948;-74
2023/10/10 13:37:09;;;;;;;;;;;;;;;20.39;57.93;99898.59;10330846;28;849;-74
2023/10/10 13:42:06;;;;;;;;;;;;;;;20.45;57.87;99892.97;10330366;28;883;-74
2023/10/10 13:47:02;;;;;;;;;;;;;;;20.53;57.59;99885.50;10329142;28;1878;-73
2023/10/10 13:51:59;;;;;;;;;;;;;;;20.62;57.50;99882.41;10329128;28;885;-73
2023/10/10 13:56:55;;;;;;;;;;;;;;;20.69;57.30;99883.78;10329999;28;874;-74
2023/10/10 14:01:54;;;;;;;;;;;;;;;20.74;57.20;99888.81;10329892;28;926;-75
2023/10/10 14:06:50;;;;;;;;;;;;;;;20.76;57.23;99885.16;10329633;28;1906;-74
2023/10/10 14:11:46;;;;;;;;;;;;;;;20.82;57.12;99885.78;10328870;28;770;-73
2023/10/10 14:16:42;;;;;;;;;;;;;;;20.86;57.15;99884.69;10328657;28;953;-73
2023/10/10 14:21:38;;;;;;;;;;;;;;;20.88;56.95;99870.41;10327858;28;782;-73
2023/10/10 14:26:35;;;;;;;;;;;;;;;20.92;56.96;99876.38;10328268;28;1886;-74
2023/10/10 14:31:31;;;;;;;;;;;;;;;20.96;57.08;99880.59;10328050;28;893;-74
2023/10/10 14:36:27;;;;;;;;;;;;;;;20.97;57.07;99875.19;10328521;28;876;-73
2023/10/10 14:41:23;;;;;;;;;;;;;;;21.00;56.94;99874.19;10329042;28;884;-74
2023/10/10 14:46:21;;;;;;;;;;;;;;;21.01;57.06;99867.94;10327089;28;1943;-74
2023/10/10 14:51:17;;;;;;;;;;;;;;;20.99;56.91;99856.56;10327986;28;759;-73
2023/10/10 14:56:19;;;;;;;;;;;;;;;21.00;57.12;99852.97;10327057;28;902;-73
2023/10/10 15:01:18;;;;;;;;;;;;;;;21.00;57.01;99858.28;10326860;28;982;-73
2023/10/10 15:06:16;;;;;;;;;;;;;;;20.98;57.20;99852.19;10327152;28;1902;-74
2023/10/10 15:11:12;;;;;;;;;;;;;;;20.97;57.20;99856.66;10326986;28;777;-73
2023/10/10 15:16:10;;;;;;;;;;;;;;;20.99;57.38;99862.72;10326706;28;849;-74
2023/10/10 15:21:06;;;;;;;;;;;;;;;20.98;57.35;99855.69;10326470;28;887;-75
2023/10/10 15:26:05;;;;;;;;;;;;;;;20.90;57.60;99851.75;10326795;28;1890;-76
2023/10/10 15:31:01;;;;;;;;;;;;;;;20.89;57.63;99858.00;10325239;28;946;-79
2023/10/10 15:35:57;;;;;;;;;;;;;;;20.77;57.85;99852.41;10326018;28;843;-75
2023/10/10 15:40:53;;;;;;;;;;;;;;;20.45;58.67;99840.03;10325920;28;825;-74
2023/10/10 15:45:49;;;;;;;;;;;;;;;20.40;58.73;99842.91;10325196;28;1943;-74
2023/10/10 15:50:46;;;;;;;;;;;;;;;20.40;58.70;99842.91;10325481;28;1404;-74
2023/10/10 15:55:42;;;;;;;;;;;;;;;20.31;58.86;99833.66;10325541;28;769;-75
2023/10/10 16:00:39;;;;;;;;;;;;;;;20.25;59.00;99834.00;10325410;28;940;-75
2023/10/10 16:05:35;;;;;;;;;;;;;;;20.20;59.22;99836.03;10325249;28;1909;-75
2023/10/10 16:10:34;;;;;;;;;;;;;;;20.16;59.21;99833.63;10325198;28;854;-76
2023/10/10 16:15:33;;;;;;;;;;;;;;;20.13;59.22;99834.63;10325110;28;874;-75
2023/10/10 16:20:29;;;;;;;;;;;;;;;20.10;59.25;99834.78;10325624;28;901;-75
2023/10/10 16:25:24;;;;;;;;;;;;;;;20.07;59.51;99834.97;10324874;28;1894;-74
2023/10/10 16:30:21;;;;;;;;;;;;;;;20.04;59.42;99837.72;10324810;28;861;-75
2023/10/10 16:35:20;;;;;;;;;;;;;;;20.02;59.42;99842.28;10325370;28;931;-75
2023/10/10 16:40:17;;;;;;;;;;;;;;;20.00;59.51;99839.69;10325283;28;971;-74
2023/10/10 16:45:13;;;;;;;;;;;;;;;19.98;59.59;99843.34;10333005;28;1889;-74
2023/10/10 16:50:09;;;;;;;;;;;;;;;19.96;59.76;99834.63;10332371;28;1259;-75
2023/10/10 16:55:10;;;;;;;;;;;;;;;19.93;59.61;99830.34;10332067;28;869;-71
2023/10/10 17:00:13;;;;;;;;;;;;;;;19.91;59.73;99818.97;10331836;28;965;-75
2023/10/10 17:05:12;;;;;;;;;;;;;;;19.90;59.67;99820.78;10332211;28;1961;-75
2023/10/10 17:10:13;;;;;;;;;;;;;;;19.89;59.82;99826.16;10331432;28;966;-75
2023/10/10 17:15:13;;;;;;;;;;;;;;;19.87;59.75;99836.81;10331445;28;892;-75
2023/10/10 17:20:15;;;;;;;;;;;;;;;19.85;59.71;99830.72;10331181;28;880;-74
2023/10/10 17:25:12;;;;;;;;;;;;;;;19.85;59.74;99827.25;10331554;28;1939;-74
2023/10/10 17:30:08;;;;;;;;;;;;;;;19.83;59.85;99818.50;10331621;28;830;-74
2023/10/10 17:35:04;;;;;;;;;;;;;;;19.83;59.74;99827.34;10331489;28;811;-74
2023/10/10 17:40:00;;;;;;;;;;;;;;;19.82;59.72;99819.47;10329781;28;949;-74
2023/10/10 17:44:57;;;;;;;;;;;;;;;19.81;59.85;99810.69;10330249;28;1882;-74
2023/10/10 17:49:53;;;;;;;;;;;;;;;19.81;59.88;99813.31;10330067;28;1104;-74
2023/10/10 17:54:50;;;;;;;;;;;;;;;19.80;59.93;99819.53;10328816;28;956;-74
2023/10/10 17:59:46;;;;;;;;;;;;;;;19.80;59.93;99810.75;10329729;28;866;-75
2023/10/10 18:04:42;;;;;;;;;;;;;;;19.79;59.81;99809.91;10329465;28;1914;-74
2023/10/10 18:09:38;;;;;;;;;;;;;;;19.78;59.91;99802.91;10328692;28;906;-74
2023/10/10 18:14:34;;;;;;;;;;;;;;;19.78;59.91;99802.03;10328571;28;952;-75
2023/10/10 18:19:30;;;;;;;;;;;;;;;19.79;59.95;99809.03;10328913;28;918;-74
2023/10/10 18:24:29;;;;;;;;;;;;;;;19.77;60.00;99795.88;10328599;28;1894;-75
2023/10/10 18:29:26;;;;;;;;;;;;;;;19.77;59.79;99806.47;10328426;28;964;-75
2023/10/10 18:34:24;;;;;;;;;;;;;;;19.77;59.95;99801.19;10328290;28;1011;-75
2023/10/10 18:39:20;;;;;;;;;;;;;;;19.78;59.78;99802.03;10328854;28;864;-75
2023/10/10 18:44:16;;;;;;;;;;;;;;;19.76;59.99;99799.47;10328388;28;1949;-75
2023/10/10 18:49:14;;;;;;;;;;;;;;;19.76;59.90;99794.19;10327694;28;1168;-75
2023/10/10 18:54:11;;;;;;;;;;;;;;;19.76;59.93;99794.19;10328408;28;834;-75
2023/10/10 18:59:07;;;;;;;;;;;;;;;19.75;59.97;99787.16;10327311;28;1025;-75
2023/10/10 19:04:03;;;;;;;;;;;;;;;19.75;59.89;99784.53;10326750;28;1902;-75
2023/10/10 19:09:00;;;;;;;;;;;;;;;19.76;59.86;99785.41;10326401;28;833;-75
2023/10/10 19:13:56;;;;;;;;;;;;;;;19.75;59.80;99779.22;10326162;28;1066;-75
2023/10/10 19:18:51;;;;;;;;;;;;;;;19.75;59.90;99781.88;10327201;28;1006;-75
2023/10/10 19:23:48;;;;;;;;;;;;;;;19.74;59.70;99769.59;10326925;28;1957;-75
2023/10/10 19:28:52;;;;;;;;;;;;;;;19.75;60.03;99763.38;10326544;28;1643;-76
2023/10/10 19:33:48;;;;;;;;;;;;;;;19.74;59.66;99756.38;10326983;28;862;-75
2023/10/10 19:38:44;;;;;;;;;;;;;;;19.76;59.84;99751.88;10326612;28;837;-75
2023/10/10 19:43:40;;;;;;;;;;;;;;;19.75;59.80;99744.84;10325792;28;1890;-75
2023/10/10 19:48:39;;;;;;;;;;;;;;;19.76;59.40;99736.00;10325266;28;1193;-78
2023/10/10 19:53:35;;;;;;;;;;;;;;;19.76;59.62;99729.88;10326171;28;1640;-76
2023/10/10 19:58:34;;;;;;;;;;;;;;;19.75;59.76;99728.97;10325385;28;1068;-77
2023/10/10 20:03:30;;;;;;;;;;;;;;;19.74;59.80;99723.78;10325281;28;1921;-77
2023/10/10 20:08:26;;;;;;;;;;;;;;;19.76;59.77;99722.78;10325925;28;872;-77
2023/10/10 20:13:22;;;;;;;;;;;;;;;19.75;59.70;99721.03;10325171;28;938;-77
2023/10/10 20:18:18;;;;;;;;;;;;;;;19.75;59.79;99723.69;10330285;28;898;-77
2023/10/10 20:23:14;;;;;;;;;;;;;;;19.75;59.83;99715.75;10333294;28;1966;-77
2023/10/10 20:28:10;;;;;;;;;;;;;;;19.75;59.91;99713.13;10333154;28;764;-77
2023/10/10 20:33:14;;;;;;;;;;;;;;;19.74;59.81;99711.41;10333592;28;863;-77
2023/10/10 20:38:10;;;;;;;;;;;;;;;19.75;59.73;99713.13;10333426;28;823;-77
2023/10/10 20:43:07;;;;;;;;;;;;;;;19.75;59.65;99717.56;10332587;28;1901;-78
2023/10/10 20:48:08;;;;;;;;;;;;;;;19.75;59.66;99710.47;10333060;28;1168;-77
2023/10/10 20:53:05;;;;;;;;;;;;;;;19.75;59.60;99706.97;10332893;28;850;-77
2023/10/10 20:58:00;;;;;;;;;;;;;;;19.74;59.63;99700.84;10332466;28;849;-77
2023/10/10 21:02:56;;;;;;;;;;;;;;;19.75;59.71;99707.81;10331961;28;1915;-77
2023/10/10 21:07:52;;;;;;;;;;;;;;;19.75;59.74;99685.81;10331660;28;1608;-77
2023/10/10 21:12:50;;;;;;;;;;;;;;;19.74;59.54;99692.91;10332277;28;786;-77
2023/10/10 21:17:48;;;;;;;;;;;;;;;19.74;59.64;99695.53;10331308;28;778;-77
2023/10/10 21:22:45;;;;;;;;;;;;;;;19.75;59.50;99704.31;10330488;28;1890;-77
2023/10/10 21:27:43;;;;;;;;;;;;;;;19.74;59.63;99706.13;10330756;28;841;-77
2023/10/10 21:32:39;;;;;;;;;;;;;;;19.75;59.53;99706.97;10330723;28;919;-77
2023/10/10 21:37:35;;;;;;;;;;;;;;;19.75;59.51;99701.69;10330577;28;1575;-77
2023/10/10 21:42:32;;;;;;;;;;;;;;;19.73;59.58;99693.84;10330713;28;1897;-77
2023/10/10 21:47:28;;;;;;;;;;;;;;;19.74;59.48;99692.91;10329632;28;1208;-76
2023/10/10 21:52:24;;;;;;;;;;;;;;;19.74;59.51;99700.00;10329434;28;1440;-76
2023/10/10 21:57:20;;;;;;;;;;;;;;;19.74;59.58;99692.91;10329293;28;888;-77
2023/10/10 22:02:16;;;;;;;;;;;;;;;19.72;59.58;99686.84;10329478;28;804;-77
2023/10/10 22:07:12;;;;;;;;;;;;;;;19.75;59.37;99691.09;10329417;28;1961;-77
2023/10/10 22:12:08;;;;;;;;;;;;;;;19.74;59.50;99684.97;10328702;28;853;-76
2023/10/10 22:17:07;;;;;;;;;;;;;;;19.73;59.39;99683.28;10329009;28;878;-76
2023/10/10 22:22:03;;;;;;;;;;;;;;;19.73;59.54;99683.28;10328842;28;870;-77
2023/10/10 22:26:59;;;;;;;;;;;;;;;19.75;59.48;99677.88;10329175;28;1886;-77
2023/10/10 22:31:55;;;;;;;;;;;;;;;19.74;59.08;99670.91;10328417;28;860;-77
2023/10/10 22:36:50;;;;;;;;;;;;;;;19.74;59.42;99673.53;10328271;28;1131;-76
2023/10/10 22:41:47;;;;;;;;;;;;;;;19.73;59.03;99677.09;10327343;28;903;-77
2023/10/10 22:46:43;;;;;;;;;;;;;;;19.72;58.06;99665.69;10327846;28;1862;-76
2023/10/10 22:51:39;;;;;;;;;;;;;;;19.73;58.29;99663.88;10328685;28;831;-76
2023/10/10 22:56:35;;;;;;;;;;;;;;;19.71;57.29;99661.34;10327512;28;869;-77
2023/10/10 23:01:32;;;;;;;;;;;;;;;19.71;57.55;99648.13;10327321;28;806;-77
2023/10/10 23:06:28;;;;;;;;;;;;;;;19.70;57.70;99652.56;10327591;28;1905;-76
2023/10/10 23:11:24;;;;;;;;;;;;;;;19.70;57.19;99657.84;10326810;28;989;-77
2023/10/10 23:16:22;;;;;;;;;;;;;;;19.70;57.77;99655.19;10326708;28;786;-77
2023/10/10 23:21:19;;;;;;;;;;;;;;;19.70;56.81;99649.03;10327272;28;881;-77
2023/10/10 23:26:15;;;;;;;;;;;;;;;19.70;57.13;99652.56;10327010;28;1890;-76
2023/10/10 23:31:11;;;;;;;;;;;;;;;19.70;56.52;99649.03;10326022;28;898;-77
2023/10/10 23:36:07;;;;;;;;;;;;;;;19.69;56.89;99653.47;10326102;28;871;-77
2023/10/10 23:41:04;;;;;;;;;;;;;;;19.69;57.12;99644.69;10326523;28;785;-77
2023/10/10 23:46:00;;;;;;;;;;;;;;;19.69;56.32;99644.69;10325746;28;1886;-77
2023/10/10 23:50:56;;;;;;;;;;;;;;;19.69;56.41;99644.69;10325281;28;1124;-77
2023/10/10 23:55:54;;;;;;;;;;;;;;;19.69;57.00;99636.75;10325590;28;772;-77
